sensor_id;sensor_type;location;lat;lon;timestamp;P1;P2;P0
65973;PMS5003;52729;54.906;73.316;2022-07-15T00:02:27;13.00;9.00;4.00
65973;PMS5003;52729;54.906;73.316;2022-07-15T00:05:28;11.00;7.00;3.75
65973;PMS5003;52729;54.906;73.316;2022-07-15T00:08:29;8.50;7.25;3.00
65973;PMS5003;52729;54.906;73.316;2022-07-15T00:11:39;12.00;9.00;3.00
65973;PMS5003;52729;54.906;73.316;2022-07-15T00:14:40;14.00;12.50;5.50
65973;PMS5003;52729;54.906;73.316;2022-07-15T00:17:42;17.00;15.50;6.25
65973;PMS5003;52729;54.906;73.316;2022-07-15T00:20:44;13.00;11.75;5.00
65973;PMS5003;52729;54.906;73.316;2022-07-15T00:23:50;17.50;15.50;7.25
65973;PMS5003;52729;54.906;73.316;2022-07-15T00:26:59;19.25;16.75;8.25
65973;PMS5003;52729;54.906;73.316;2022-07-15T00:30:03;27.00;25.00;14.25
65973;PMS5003;52729;54.906;73.316;2022-07-15T00:33:04;24.75;23.00;12.50
65973;PMS5003;52729;54.906;73.316;2022-07-15T00:36:06;22.00;19.00;9.00
65973;PMS5003;52729;54.906;73.316;2022-07-15T00:39:07;17.00;16.00;4.00
65973;PMS5003;52729;54.906;73.316;2022-07-15T00:42:13;16.00;14.50;4.75
65973;PMS5003;52729;54.906;73.316;2022-07-15T00:45:42;16.50;13.50;4.50
65973;PMS5003;52729;54.906;73.316;2022-07-15T00:48:44;16.00;12.75;5.50
65973;PMS5003;52729;54.906;73.316;2022-07-15T00:51:46;15.50;13.50;5.00
65973;PMS5003;52729;54.906;73.316;2022-07-15T00:54:58;20.00;16.50;5.25
65973;PMS5003;52729;54.906;73.316;2022-07-15T00:58:03;19.00;17.00;6.75
65973;PMS5003;52729;54.906;73.316;2022-07-15T01:01:05;15.50;15.00;6.00
65973;PMS5003;52729;54.906;73.316;2022-07-15T01:04:07;18.00;16.25;6.00
65973;PMS5003;52729;54.906;73.316;2022-07-15T01:07:19;20.00;17.50;7.50
65973;PMS5003;52729;54.906;73.316;2022-07-15T01:10:30;20.25;19.00;9.00
65973;PMS5003;52729;54.906;73.316;2022-07-15T01:13:31;22.50;20.25;8.50
65973;PMS5003;52729;54.906;73.316;2022-07-15T01:16:32;21.00;19.00;9.00
65973;PMS5003;52729;54.906;73.316;2022-07-15T01:19:34;16.50;15.50;5.00
65973;PMS5003;52729;54.906;73.316;2022-07-15T01:22:40;16.75;14.50;5.00
65973;PMS5003;52729;54.906;73.316;2022-07-15T01:25:41;16.00;13.00;5.00
65973;PMS5003;52729;54.906;73.316;2022-07-15T01:28:50;15.75;14.25;6.00
65973;PMS5003;52729;54.906;73.316;2022-07-15T01:31:53;17.00;15.25;5.00
65973;PMS5003;52729;54.906;73.316;2022-07-15T01:35:05;15.50;13.75;4.00
65973;PMS5003;52729;54.906;73.316;2022-07-15T01:38:09;15.25;13.00;5.50
65973;PMS5003;52729;54.906;73.316;2022-07-15T01:41:20;17.00;15.75;6.00
65973;PMS5003;52729;54.906;73.316;2022-07-15T01:44:24;19.25;17.00;6.00
65973;PMS5003;52729;54.906;73.316;2022-07-15T01:47:25;20.00;18.00;6.00
65973;PMS5003;52729;54.906;73.316;2022-07-15T01:50:39;18.00;17.00;5.00
65973;PMS5003;52729;54.906;73.316;2022-07-15T01:53:46;17.25;17.00;6.50
65973;PMS5003;52729;54.906;73.316;2022-07-15T01:56:58;19.50;16.50;6.50
65973;PMS5003;52729;54.906;73.316;2022-07-15T02:00:00;18.00;16.00;6.00
65973;PMS5003;52729;54.906;73.316;2022-07-15T02:03:32;16.00;14.00;6.00
65973;PMS5003;52729;54.906;73.316;2022-07-15T02:06:33;15.50;14.50;5.00
65973;PMS5003;52729;54.906;73.316;2022-07-15T02:09:34;17.75;15.00;6.00
65973;PMS5003;52729;54.906;73.316;2022-07-15T02:12:35;18.25;16.00;6.00
65973;PMS5003;52729;54.906;73.316;2022-07-15T02:15:41;17.00;15.00;5.25
65973;PMS5003;52729;54.906;73.316;2022-07-15T02:18:42;18.50;16.25;6.00
65973;PMS5003;52729;54.906;73.316;2022-07-15T02:21:48;22.50;19.00;8.25
65973;PMS5003;52729;54.906;73.316;2022-07-15T02:24:49;20.75;20.00;9.00
65973;PMS5003;52729;54.906;73.316;2022-07-15T02:27:59;19.25;19.00;9.00
65973;PMS5003;52729;54.906;73.316;2022-07-15T02:31:10;22.75;20.25;9.75
65973;PMS5003;52729;54.906;73.316;2022-07-15T02:34:12;24.00;20.00;8.25
65973;PMS5003;52729;54.906;73.316;2022-07-15T02:37:14;21.00;19.50;9.00
65973;PMS5003;52729;54.906;73.316;2022-07-15T02:40:20;19.00;19.00;10.00
65973;PMS5003;52729;54.906;73.316;2022-07-15T02:43:32;19.50;17.75;9.50
65973;PMS5003;52729;54.906;73.316;2022-07-15T02:46:34;29.00;26.00;15.50
65973;PMS5003;52729;54.906;73.316;2022-07-15T02:49:46;23.00;20.75;13.75
65973;PMS5003;52729;54.906;73.316;2022-07-15T02:52:59;22.75;21.75;10.00
65973;PMS5003;52729;54.906;73.316;2022-07-15T02:56:06;18.75;18.00;7.25
65973;PMS5003;52729;54.906;73.316;2022-07-15T02:59:16;16.00;16.00;6.25
65973;PMS5003;52729;54.906;73.316;2022-07-15T03:02:28;16.00;15.00;6.75
65973;PMS5003;52729;54.906;73.316;2022-07-15T03:05:30;18.00;16.00;6.00
65973;PMS5003;52729;54.906;73.316;2022-07-15T03:08:41;16.75;16.00;6.00
65973;PMS5003;52729;54.906;73.316;2022-07-15T03:11:42;17.75;17.75;5.00
65973;PMS5003;52729;54.906;73.316;2022-07-15T03:14:43;18.50;18.00;6.50
65973;PMS5003;52729;54.906;73.316;2022-07-15T03:17:44;18.50;18.50;8.00
65973;PMS5003;52729;54.906;73.316;2022-07-15T03:20:45;16.50;16.00;5.50
65973;PMS5003;52729;54.906;73.316;2022-07-15T03:23:52;14.75;14.50;5.50
65973;PMS5003;52729;54.906;73.316;2022-07-15T03:26:53;16.00;16.00;5.50
65973;PMS5003;52729;54.906;73.316;2022-07-15T03:29:55;16.00;16.00;5.50
65973;PMS5003;52729;54.906;73.316;2022-07-15T03:32:56;15.25;15.25;4.75
65973;PMS5003;52729;54.906;73.316;2022-07-15T03:36:04;15.00;15.00;5.00
65973;PMS5003;52729;54.906;73.316;2022-07-15T03:39:08;14.50;14.50;5.25
65973;PMS5003;52729;54.906;73.316;2022-07-15T03:42:10;13.00;12.00;4.00
65973;PMS5003;52729;54.906;73.316;2022-07-15T03:45:13;15.25;14.00;7.00
65973;PMS5003;52729;54.906;73.316;2022-07-15T03:48:20;15.50;14.50;5.25
65973;PMS5003;52729;54.906;73.316;2022-07-15T03:51:22;17.25;14.50;7.00
65973;PMS5003;52729;54.906;73.316;2022-07-15T03:54:25;17.75;17.00;8.25
65973;PMS5003;52729;54.906;73.316;2022-07-15T03:57:37;20.00;19.00;10.00
65973;PMS5003;52729;54.906;73.316;2022-07-15T04:00:43;23.00;22.00;8.00
65973;PMS5003;52729;54.906;73.316;2022-07-15T04:03:44;33.25;30.25;18.50
65973;PMS5003;52729;54.906;73.316;2022-07-15T04:06:50;33.00;30.50;18.50
65973;PMS5003;52729;54.906;73.316;2022-07-15T04:09:51;29.50;27.00;17.50
65973;PMS5003;52729;54.906;73.316;2022-07-15T04:12:58;27.50;26.00;15.75
65973;PMS5003;52729;54.906;73.316;2022-07-15T04:15:59;25.50;23.25;16.00
65973;PMS5003;52729;54.906;73.316;2022-07-15T04:19:00;27.75;25.50;15.00
65973;PMS5003;52729;54.906;73.316;2022-07-15T04:22:02;29.00;26.50;15.00
65973;PMS5003;52729;54.906;73.316;2022-07-15T04:25:17;29.25;26.00;15.25
65973;PMS5003;52729;54.906;73.316;2022-07-15T04:28:22;32.00;29.00;15.00
65973;PMS5003;52729;54.906;73.316;2022-07-15T04:31:23;28.75;27.50;14.00
65973;PMS5003;52729;54.906;73.316;2022-07-15T04:34:32;31.25;29.00;15.50
65973;PMS5003;52729;54.906;73.316;2022-07-15T04:37:43;29.75;27.50;15.00
65973;PMS5003;52729;54.906;73.316;2022-07-15T04:40:45;31.25;27.00;15.00
65973;PMS5003;52729;54.906;73.316;2022-07-15T04:43:56;28.00;27.00;17.00
65973;PMS5003;52729;54.906;73.316;2022-07-15T04:46:57;32.50;29.00;18.00
65973;PMS5003;52729;54.906;73.316;2022-07-15T04:50:14;31.75;27.75;16.75
65973;PMS5003;52729;54.906;73.316;2022-07-15T04:53:34;37.50;31.00;18.50
65973;PMS5003;52729;54.906;73.316;2022-07-15T04:56:40;36.50;31.50;18.00
65973;PMS5003;52729;54.906;73.316;2022-07-15T04:59:52;39.00;33.25;20.00
65973;PMS5003;52729;54.906;73.316;2022-07-15T05:02:53;35.25;31.50;20.00
65973;PMS5003;52729;54.906;73.316;2022-07-15T05:05:54;39.00;33.00;20.00
65973;PMS5003;52729;54.906;73.316;2022-07-15T05:09:05;37.25;32.25;19.00
65973;PMS5003;52729;54.906;73.316;2022-07-15T05:12:08;36.75;31.00;19.25
65973;PMS5003;52729;54.906;73.316;2022-07-15T05:15:25;35.75;30.00;18.50
65973;PMS5003;52729;54.906;73.316;2022-07-15T05:18:26;38.00;32.00;19.00
65973;PMS5003;52729;54.906;73.316;2022-07-15T05:21:30;37.00;31.00;20.00
65973;PMS5003;52729;54.906;73.316;2022-07-15T05:24:31;32.50;27.50;16.25
65973;PMS5003;52729;54.906;73.316;2022-07-15T05:27:37;34.25;29.25;18.00
65973;PMS5003;52729;54.906;73.316;2022-07-15T05:30:38;34.75;30.25;18.25
65973;PMS5003;52729;54.906;73.316;2022-07-15T05:33:42;36.00;32.00;19.00
65973;PMS5003;52729;54.906;73.316;2022-07-15T05:36:44;35.00;31.50;18.00
65973;PMS5003;52729;54.906;73.316;2022-07-15T05:39:48;33.00;30.00;19.00
65973;PMS5003;52729;54.906;73.316;2022-07-15T05:43:11;29.00;27.00;16.00
65973;PMS5003;52729;54.906;73.316;2022-07-15T05:46:15;33.00;30.00;16.75
65973;PMS5003;52729;54.906;73.316;2022-07-15T05:49:24;30.25;28.50;16.50
65973;PMS5003;52729;54.906;73.316;2022-07-15T05:52:38;33.00;29.50;16.50
65973;PMS5003;52729;54.906;73.316;2022-07-15T05:55:39;36.75;31.50;18.50
65973;PMS5003;52729;54.906;73.316;2022-07-15T05:58:41;33.75;28.50;17.00
65973;PMS5003;52729;54.906;73.316;2022-07-15T06:01:43;41.50;33.50;18.00
65973;PMS5003;52729;54.906;73.316;2022-07-15T06:04:44;39.75;34.50;19.00
65973;PMS5003;52729;54.906;73.316;2022-07-15T06:07:56;33.50;29.50;18.00
65973;PMS5003;52729;54.906;73.316;2022-07-15T06:11:02;27.50;25.25;16.00
65973;PMS5003;52729;54.906;73.316;2022-07-15T06:14:09;27.25;25.50;15.00
65973;PMS5003;52729;54.906;73.316;2022-07-15T06:17:11;30.00;27.00;17.00
65973;PMS5003;52729;54.906;73.316;2022-07-15T06:20:12;28.75;26.50;14.50
65973;PMS5003;52729;54.906;73.316;2022-07-15T06:23:14;31.00;27.75;14.00
65973;PMS5003;52729;54.906;73.316;2022-07-15T06:26:16;28.75;26.00;14.50
65973;PMS5003;52729;54.906;73.316;2022-07-15T06:29:17;33.25;29.00;16.50
65973;PMS5003;52729;54.906;73.316;2022-07-15T06:32:18;31.00;29.25;16.25
65973;PMS5003;52729;54.906;73.316;2022-07-15T06:35:19;34.00;30.00;17.25
65973;PMS5003;52729;54.906;73.316;2022-07-15T06:38:22;35.00;31.25;19.00
65973;PMS5003;52729;54.906;73.316;2022-07-15T06:41:33;33.25;30.00;17.25
65973;PMS5003;52729;54.906;73.316;2022-07-15T06:44:45;31.00;28.00;17.50
65973;PMS5003;52729;54.906;73.316;2022-07-15T06:47:56;34.00;28.75;16.50
65973;PMS5003;52729;54.906;73.316;2022-07-15T06:51:01;36.75;29.50;17.75
65973;PMS5003;52729;54.906;73.316;2022-07-15T06:54:02;40.50;33.00;20.00
65973;PMS5003;52729;54.906;73.316;2022-07-15T06:57:06;36.25;30.75;18.50
65973;PMS5003;52729;54.906;73.316;2022-07-15T07:00:07;34.00;31.00;19.00
65973;PMS5003;52729;54.906;73.316;2022-07-15T07:03:12;27.50;27.00;17.00
65973;PMS5003;52729;54.906;73.316;2022-07-15T07:06:14;27.00;25.00;13.50
65973;PMS5003;52729;54.906;73.316;2022-07-15T07:09:16;26.00;25.00;13.00
65973;PMS5003;52729;54.906;73.316;2022-07-15T07:12:17;26.50;25.00;12.00
65973;PMS5003;52729;54.906;73.316;2022-07-15T07:15:18;26.50;25.25;12.25
65973;PMS5003;52729;54.906;73.316;2022-07-15T07:18:21;35.50;32.00;16.75
65973;PMS5003;52729;54.906;73.316;2022-07-15T07:21:22;37.50;31.50;17.50
65973;PMS5003;52729;54.906;73.316;2022-07-15T07:24:30;34.50;30.25;18.00
65973;PMS5003;52729;54.906;73.316;2022-07-15T07:27:31;32.75;28.00;17.50
65973;PMS5003;52729;54.906;73.316;2022-07-15T07:30:33;26.50;24.00;15.50
65973;PMS5003;52729;54.906;73.316;2022-07-15T07:33:35;25.00;23.00;13.00
65973;PMS5003;52729;54.906;73.316;2022-07-15T07:36:36;30.00;24.00;11.50
65973;PMS5003;52729;54.906;73.316;2022-07-15T07:39:37;25.50;24.00;11.50
65973;PMS5003;52729;54.906;73.316;2022-07-15T07:42:38;28.75;28.00;12.50
65973;PMS5003;52729;54.906;73.316;2022-07-15T07:45:40;28.50;25.50;13.00
65973;PMS5003;52729;54.906;73.316;2022-07-15T07:48:42;28.25;28.00;14.50
65973;PMS5003;52729;54.906;73.316;2022-07-15T07:51:44;34.25;30.75;16.25
65973;PMS5003;52729;54.906;73.316;2022-07-15T07:54:45;37.00;33.25;19.00
65973;PMS5003;52729;54.906;73.316;2022-07-15T07:57:47;41.00;34.00;20.00
65973;PMS5003;52729;54.906;73.316;2022-07-15T08:00:49;39.00;33.00;19.00
65973;PMS5003;52729;54.906;73.316;2022-07-15T08:03:52;37.00;29.50;19.00
65973;PMS5003;52729;54.906;73.316;2022-07-15T08:06:53;35.50;29.50;18.00
65973;PMS5003;52729;54.906;73.316;2022-07-15T08:09:54;36.25;32.00;19.75
65973;PMS5003;52729;54.906;73.316;2022-07-15T08:12:56;29.00;28.00;16.00
65973;PMS5003;52729;54.906;73.316;2022-07-15T08:15:57;30.00;26.00;15.00
65973;PMS5003;52729;54.906;73.316;2022-07-15T08:18:58;29.00;27.00;14.25
65973;PMS5003;52729;54.906;73.316;2022-07-15T08:22:00;26.75;23.50;11.00
65973;PMS5003;52729;54.906;73.316;2022-07-15T08:25:12;21.50;19.50;8.00
65973;PMS5003;52729;54.906;73.316;2022-07-15T08:28:18;17.50;17.00;5.50
65973;PMS5003;52729;54.906;73.316;2022-07-15T08:31:19;15.75;15.75;5.00
65973;PMS5003;52729;54.906;73.316;2022-07-15T08:34:31;18.00;16.00;6.00
65973;PMS5003;52729;54.906;73.316;2022-07-15T08:37:32;17.75;15.00;6.25
65973;PMS5003;52729;54.906;73.316;2022-07-15T08:40:38;20.50;17.50;7.25
65973;PMS5003;52729;54.906;73.316;2022-07-15T08:43:39;20.25;18.50;7.00
65973;PMS5003;52729;54.906;73.316;2022-07-15T08:46:40;18.00;17.00;6.00
65973;PMS5003;52729;54.906;73.316;2022-07-15T08:49:55;16.00;16.00;5.25
65973;PMS5003;52729;54.906;73.316;2022-07-15T08:52:56;16.00;14.00;5.25
65973;PMS5003;52729;54.906;73.316;2022-07-15T08:55:58;14.50;9.50;5.00
65973;PMS5003;52729;54.906;73.316;2022-07-15T08:59:00;9.50;8.50;3.00
65973;PMS5003;52729;54.906;73.316;2022-07-15T09:02:01;6.25;6.25;3.25
65973;PMS5003;52729;54.906;73.316;2022-07-15T09:08:29;7.00;6.25;3.00
65973;PMS5003;52729;54.906;73.316;2022-07-15T09:11:32;13.75;11.50;5.75
65973;PMS5003;52729;54.906;73.316;2022-07-15T09:14:40;8.25;7.50;3.00
65973;PMS5003;52729;54.906;73.316;2022-07-15T09:17:44;9.00;9.00;4.00
65973;PMS5003;52729;54.906;73.316;2022-07-15T09:20:45;10.00;8.00;4.00
65973;PMS5003;52729;54.906;73.316;2022-07-15T09:23:46;8.50;8.00;4.00
65973;PMS5003;52729;54.906;73.316;2022-07-15T09:26:48;9.00;9.00;2.00
65973;PMS5003;52729;54.906;73.316;2022-07-15T09:29:48;7.00;6.00;2.00
65973;PMS5003;52729;54.906;73.316;2022-07-15T09:33:12;7.00;7.00;2.00
65973;PMS5003;52729;54.906;73.316;2022-07-15T09:36:32;7.00;6.00;2.00
65973;PMS5003;52729;54.906;73.316;2022-07-15T09:39:34;7.00;7.00;3.00
65973;PMS5003;52729;54.906;73.316;2022-07-15T09:43:06;7.75;6.50;2.25
65973;PMS5003;52729;54.906;73.316;2022-07-15T09:46:15;9.75;9.50;3.75
65973;PMS5003;52729;54.906;73.316;2022-07-15T09:52:31;8.00;8.00;2.75
65973;PMS5003;52729;54.906;73.316;2022-07-15T09:55:51;6.00;6.00;1.00
65973;PMS5003;52729;54.906;73.316;2022-07-15T09:58:53;7.00;7.00;2.00
65973;PMS5003;52729;54.906;73.316;2022-07-15T10:01:59;6.00;6.00;2.00
65973;PMS5003;52729;54.906;73.316;2022-07-15T10:05:04;9.00;9.00;4.25
65973;PMS5003;52729;54.906;73.316;2022-07-15T10:08:15;12.00;11.00;3.00
65973;PMS5003;52729;54.906;73.316;2022-07-15T10:11:17;15.25;10.50;4.00
65973;PMS5003;52729;54.906;73.316;2022-07-15T10:30:21;6.25;5.50;1.00
65973;PMS5003;52729;54.906;73.316;2022-07-15T10:33:23;7.00;7.00;1.00
65973;PMS5003;52729;54.906;73.316;2022-07-15T10:36:24;8.25;8.00;3.00
65973;PMS5003;52729;54.906;73.316;2022-07-15T10:39:47;5.00;5.00;3.00
65973;PMS5003;52729;54.906;73.316;2022-07-15T10:42:56;7.00;6.00;2.00
65973;PMS5003;52729;54.906;73.316;2022-07-15T10:46:04;6.75;6.75;2.25
65973;PMS5003;52729;54.906;73.316;2022-07-15T10:55:31;5.00;5.00;2.25
65973;PMS5003;52729;54.906;73.316;2022-07-15T10:58:32;5.00;4.00;1.00
65973;PMS5003;52729;54.906;73.316;2022-07-15T11:01:45;5.00;5.00;1.00
65973;PMS5003;52729;54.906;73.316;2022-07-15T11:04:47;5.00;5.00;0.00
65973;PMS5003;52729;54.906;73.316;2022-07-15T11:07:48;6.00;6.00;0.50
65973;PMS5003;52729;54.906;73.316;2022-07-15T11:17:53;4.00;4.00;0.00
65973;PMS5003;52729;54.906;73.316;2022-07-15T11:21:00;3.00;3.00;0.00
65973;PMS5003;52729;54.906;73.316;2022-07-15T11:24:01;5.00;3.00;0.00
65973;PMS5003;52729;54.906;73.316;2022-07-15T11:27:06;3.75;3.75;0.00
65973;PMS5003;52729;54.906;73.316;2022-07-15T11:30:07;7.00;6.00;0.00
65973;PMS5003;52729;54.906;73.316;2022-07-15T11:33:14;6.50;5.50;1.00
65973;PMS5003;52729;54.906;73.316;2022-07-15T11:36:25;4.00;3.25;0.00
65973;PMS5003;52729;54.906;73.316;2022-07-15T11:39:29;4.25;3.50;1.00
65973;PMS5003;52729;54.906;73.316;2022-07-15T11:42:35;5.00;4.50;1.00
65973;PMS5003;52729;54.906;73.316;2022-07-15T11:45:54;5.00;5.00;1.00
65973;PMS5003;52729;54.906;73.316;2022-07-15T11:48:57;3.75;3.50;0.00
65973;PMS5003;52729;54.906;73.316;2022-07-15T11:51:59;4.00;4.00;0.00
65973;PMS5003;52729;54.906;73.316;2022-07-15T11:55:04;4.00;3.00;0.00
65973;PMS5003;52729;54.906;73.316;2022-07-15T11:58:06;7.50;6.00;0.00
65973;PMS5003;52729;54.906;73.316;2022-07-15T12:01:18;9.50;8.00;2.50
65973;PMS5003;52729;54.906;73.316;2022-07-15T12:04:25;7.25;7.00;1.00
65973;PMS5003;52729;54.906;73.316;2022-07-15T12:07:38;7.00;7.00;1.25
65973;PMS5003;52729;54.906;73.316;2022-07-15T12:10:39;7.00;6.00;2.00
65973;PMS5003;52729;54.906;73.316;2022-07-15T12:14:07;4.75;4.00;2.00
65973;PMS5003;52729;54.906;73.316;2022-07-15T12:17:10;5.50;5.50;1.25
65973;PMS5003;52729;54.906;73.316;2022-07-15T12:20:11;7.75;7.75;2.25
65973;PMS5003;52729;54.906;73.316;2022-07-15T12:23:12;6.00;5.00;2.00
65973;PMS5003;52729;54.906;73.316;2022-07-15T12:26:14;7.50;6.00;2.00
65973;PMS5003;52729;54.906;73.316;2022-07-15T12:29:15;7.00;6.75;2.00
65973;PMS5003;52729;54.906;73.316;2022-07-15T12:32:17;9.25;8.75;3.50
65973;PMS5003;52729;54.906;73.316;2022-07-15T12:35:18;9.00;7.00;3.00
65973;PMS5003;52729;54.906;73.316;2022-07-15T12:38:30;8.00;6.50;2.25
65973;PMS5003;52729;54.906;73.316;2022-07-15T12:41:34;6.00;6.00;2.00
65973;PMS5003;52729;54.906;73.316;2022-07-15T12:44:40;6.75;5.25;2.25
65973;PMS5003;52729;54.906;73.316;2022-07-15T12:50:58;13.75;13.25;8.00
65973;PMS5003;52729;54.906;73.316;2022-07-15T12:54:03;18.50;17.50;10.50
65973;PMS5003;52729;54.906;73.316;2022-07-15T12:57:05;7.50;7.50;2.00
65973;PMS5003;52729;54.906;73.316;2022-07-15T13:00:17;6.00;6.00;2.00
65973;PMS5003;52729;54.906;73.316;2022-07-15T13:03:20;7.00;6.00;2.00
65973;PMS5003;52729;54.906;73.316;2022-07-15T13:06:21;4.00;4.00;1.50
65973;PMS5003;52729;54.906;73.316;2022-07-15T13:09:31;4.25;4.00;2.00
65973;PMS5003;52729;54.906;73.316;2022-07-15T13:12:32;7.50;7.50;3.50
65973;PMS5003;52729;54.906;73.316;2022-07-15T13:15:43;5.25;5.25;2.00
65973;PMS5003;52729;54.906;73.316;2022-07-15T13:18:44;7.00;7.00;2.00
65973;PMS5003;52729;54.906;73.316;2022-07-15T13:21:46;5.00;5.00;2.00
65973;PMS5003;52729;54.906;73.316;2022-07-15T13:24:47;4.25;4.25;1.00
65973;PMS5003;52729;54.906;73.316;2022-07-15T13:27:48;5.75;5.75;1.00
65973;PMS5003;52729;54.906;73.316;2022-07-15T13:30:56;4.25;4.00;2.00
65973;PMS5003;52729;54.906;73.316;2022-07-15T13:33:57;6.00;6.00;1.00
65973;PMS5003;52729;54.906;73.316;2022-07-15T13:36:58;6.00;5.00;2.00
65973;PMS5003;52729;54.906;73.316;2022-07-15T13:40:10;6.00;6.00;0.00
65973;PMS5003;52729;54.906;73.316;2022-07-15T13:43:11;3.75;3.75;0.00
65973;PMS5003;52729;54.906;73.316;2022-07-15T13:46:13;4.50;4.50;0.00
65973;PMS5003;52729;54.906;73.316;2022-07-15T13:49:22;4.50;4.50;0.00
65973;PMS5003;52729;54.906;73.316;2022-07-15T13:52:51;4.00;4.00;0.50
65973;PMS5003;52729;54.906;73.316;2022-07-15T13:55:54;5.75;5.75;1.25
65973;PMS5003;52729;54.906;73.316;2022-07-15T13:58:55;7.00;7.00;2.75
65973;PMS5003;52729;54.906;73.316;2022-07-15T14:01:59;7.00;7.00;3.00
65973;PMS5003;52729;54.906;73.316;2022-07-15T14:05:03;5.00;5.00;1.00
65973;PMS5003;52729;54.906;73.316;2022-07-15T14:08:07;6.75;6.75;2.50
65973;PMS5003;52729;54.906;73.316;2022-07-15T14:11:08;5.50;5.00;3.00
65973;PMS5003;52729;54.906;73.316;2022-07-15T14:14:09;7.25;6.25;3.00
65973;PMS5003;52729;54.906;73.316;2022-07-15T14:17:11;8.75;6.25;2.00
65973;PMS5003;52729;54.906;73.316;2022-07-15T14:20:17;5.50;5.00;2.00
65973;PMS5003;52729;54.906;73.316;2022-07-15T14:23:27;5.00;4.25;1.00
65973;PMS5003;52729;54.906;73.316;2022-07-15T14:26:28;5.25;5.25;1.75
65973;PMS5003;52729;54.906;73.316;2022-07-15T14:29:29;4.00;4.00;1.00
65973;PMS5003;52729;54.906;73.316;2022-07-15T14:32:30;4.00;4.00;1.00
65973;PMS5003;52729;54.906;73.316;2022-07-15T14:35:31;3.00;3.00;1.00
65973;PMS5003;52729;54.906;73.316;2022-07-15T14:38:32;4.75;4.75;1.00
65973;PMS5003;52729;54.906;73.316;2022-07-15T14:41:35;4.75;4.75;2.50
65973;PMS5003;52729;54.906;73.316;2022-07-15T14:44:41;5.00;5.00;1.00
65973;PMS5003;52729;54.906;73.316;2022-07-15T14:47:52;5.00;5.00;1.00
65973;PMS5003;52729;54.906;73.316;2022-07-15T14:50:54;3.00;3.00;2.00
65973;PMS5003;52729;54.906;73.316;2022-07-15T14:53:55;5.75;5.00;2.00
65973;PMS5003;52729;54.906;73.316;2022-07-15T14:56:56;6.50;6.00;1.00
65973;PMS5003;52729;54.906;73.316;2022-07-15T15:00:03;6.00;6.00;3.00
65973;PMS5003;52729;54.906;73.316;2022-07-15T15:03:04;7.50;6.50;2.00
65973;PMS5003;52729;54.906;73.316;2022-07-15T15:06:06;8.75;7.50;4.00
65973;PMS5003;52729;54.906;73.316;2022-07-15T15:09:16;5.00;5.00;2.00
65973;PMS5003;52729;54.906;73.316;2022-07-15T15:12:28;7.00;6.00;3.00
65973;PMS5003;52729;54.906;73.316;2022-07-15T15:15:29;7.00;6.00;2.50
65973;PMS5003;52729;54.906;73.316;2022-07-15T15:18:30;5.00;5.00;2.00
65973;PMS5003;52729;54.906;73.316;2022-07-15T15:21:31;6.75;6.00;2.00
65973;PMS5003;52729;54.906;73.316;2022-07-15T15:24:32;6.50;6.50;2.50
65973;PMS5003;52729;54.906;73.316;2022-07-15T15:27:34;7.75;7.00;2.00
65973;PMS5003;52729;54.906;73.316;2022-07-15T15:30:35;9.00;8.00;3.00
65973;PMS5003;52729;54.906;73.316;2022-07-15T15:33:36;8.25;8.00;3.00
65973;PMS5003;52729;54.906;73.316;2022-07-15T15:36:47;7.00;7.00;2.25
65973;PMS5003;52729;54.906;73.316;2022-07-15T15:39:48;6.00;6.00;3.00
65973;PMS5003;52729;54.906;73.316;2022-07-15T15:42:49;5.25;5.25;3.00
65973;PMS5003;52729;54.906;73.316;2022-07-15T15:45:51;7.50;7.50;3.00
65973;PMS5003;52729;54.906;73.316;2022-07-15T15:49:02;5.50;5.50;3.00
65973;PMS5003;52729;54.906;73.316;2022-07-15T15:52:03;8.00;7.75;4.00
65973;PMS5003;52729;54.906;73.316;2022-07-15T15:55:05;6.50;6.50;3.00
65973;PMS5003;52729;54.906;73.316;2022-07-15T15:58:06;8.75;8.75;3.00
65973;PMS5003;52729;54.906;73.316;2022-07-15T16:01:18;9.75;9.75;4.00
65973;PMS5003;52729;54.906;73.316;2022-07-15T16:04:19;9.00;8.00;4.00
65973;PMS5003;52729;54.906;73.316;2022-07-15T16:07:20;9.00;9.00;5.50
65973;PMS5003;52729;54.906;73.316;2022-07-15T16:10:21;10.00;9.50;4.00
65973;PMS5003;52729;54.906;73.316;2022-07-15T16:13:22;9.00;8.25;4.00
65973;PMS5003;52729;54.906;73.316;2022-07-15T16:16:23;8.00;8.00;3.75
65973;PMS5003;52729;54.906;73.316;2022-07-15T16:19:25;6.00;5.75;3.00
65973;PMS5003;52729;54.906;73.316;2022-07-15T16:22:27;5.50;5.00;2.00
65973;PMS5003;52729;54.906;73.316;2022-07-15T16:25:46;7.00;6.75;4.00
65973;PMS5003;52729;54.906;73.316;2022-07-15T16:28:48;7.50;6.00;3.00
65973;PMS5003;52729;54.906;73.316;2022-07-15T16:31:49;6.50;6.50;4.00
65973;PMS5003;52729;54.906;73.316;2022-07-15T16:34:50;7.00;7.00;4.00
65973;PMS5003;52729;54.906;73.316;2022-07-15T16:37:52;7.50;7.00;2.00
65973;PMS5003;52729;54.906;73.316;2022-07-15T16:40:58;7.00;7.00;3.00
65973;PMS5003;52729;54.906;73.316;2022-07-15T16:43:59;5.75;5.00;3.00
65973;PMS5003;52729;54.906;73.316;2022-07-15T16:47:01;7.50;7.50;3.00
65973;PMS5003;52729;54.906;73.316;2022-07-15T16:50:02;7.25;7.25;4.25
65973;PMS5003;52729;54.906;73.316;2022-07-15T16:53:05;5.75;5.75;2.75
65973;PMS5003;52729;54.906;73.316;2022-07-15T16:56:11;4.50;4.50;2.00
65973;PMS5003;52729;54.906;73.316;2022-07-15T16:59:12;6.00;4.00;2.00
65973;PMS5003;52729;54.906;73.316;2022-07-15T17:02:13;7.00;5.00;2.00
65973;PMS5003;52729;54.906;73.316;2022-07-15T17:05:14;5.50;5.25;1.25
65973;PMS5003;52729;54.906;73.316;2022-07-15T17:08:16;4.00;4.00;1.00
65973;PMS5003;52729;54.906;73.316;2022-07-15T17:11:17;5.75;5.75;1.00
65973;PMS5003;52729;54.906;73.316;2022-07-15T17:14:18;6.00;6.00;2.00
65973;PMS5003;52729;54.906;73.316;2022-07-15T17:17:19;4.75;4.75;3.00
65973;PMS5003;52729;54.906;73.316;2022-07-15T17:20:27;7.00;7.00;3.00
65973;PMS5003;52729;54.906;73.316;2022-07-15T17:23:29;5.00;5.00;2.00
65973;PMS5003;52729;54.906;73.316;2022-07-15T17:26:37;6.25;6.25;1.50
65973;PMS5003;52729;54.906;73.316;2022-07-15T17:29:38;4.50;4.50;1.00
65973;PMS5003;52729;54.906;73.316;2022-07-15T17:32:50;5.75;5.50;0.50
65973;PMS5003;52729;54.906;73.316;2022-07-15T17:35:51;6.00;5.00;2.00
65973;PMS5003;52729;54.906;73.316;2022-07-15T17:38:52;5.00;5.00;3.00
65973;PMS5003;52729;54.906;73.316;2022-07-15T17:41:58;6.00;6.00;2.00
65973;PMS5003;52729;54.906;73.316;2022-07-15T17:45:04;5.00;4.00;1.00
65973;PMS5003;52729;54.906;73.316;2022-07-15T17:48:08;6.00;5.00;2.00
65973;PMS5003;52729;54.906;73.316;2022-07-15T17:51:10;5.25;5.25;2.75
65973;PMS5003;52729;54.906;73.316;2022-07-15T17:54:12;7.00;7.00;4.00
65973;PMS5003;52729;54.906;73.316;2022-07-15T17:57:16;5.00;5.00;3.00
65973;PMS5003;52729;54.906;73.316;2022-07-15T18:00:28;7.00;7.00;2.25
65973;PMS5003;52729;54.906;73.316;2022-07-15T18:03:29;5.50;5.50;2.00
65973;PMS5003;52729;54.906;73.316;2022-07-15T18:06:35;7.00;7.00;2.00